createdAt,value
2022-08-29T00:01:35.572Z,100956.66
2022-08-29T00:04:04.901Z,100961.47
2022-08-29T00:06:34.274Z,100957.13
2022-08-29T00:09:02.353Z,100961.00
2022-08-29T00:11:29.965Z,100960.31
2022-08-29T00:13:58.084Z,100966.13
2022-08-29T00:16:25.747Z,100966.94
2022-08-29T00:18:56.231Z,100964.09
2022-08-29T00:21:24.478Z,100971.28
2022-08-29T00:23:52.484Z,100973.16
2022-08-29T00:26:20.294Z,100971.78
2022-08-29T00:28:47.999Z,100972.38
2022-08-29T00:31:16.331Z,100970.41
2022-08-29T00:33:45.262Z,100969.47
2022-08-29T00:36:13.121Z,100971.97
2022-08-29T00:38:41.806Z,100968.53
2022-08-29T00:41:10.195Z,100970.66
2022-08-29T00:43:38.436Z,100972.06
2022-08-29T00:46:11.727Z,100963.34
2022-08-29T00:48:41.150Z,100960.84
2022-08-29T00:51:16.013Z,100946.06
2022-08-29T00:53:47.894Z,100953.53
2022-08-29T00:56:17.574Z,100958.28
2022-08-29T00:58:53.451Z,100953.53
2022-08-29T01:01:23.495Z,100947.69
2022-08-29T01:03:52.327Z,100950.09
2022-08-29T01:06:21.715Z,100951.09
2022-08-29T01:08:49.504Z,100958.13
2022-08-29T01:11:48.425Z,100965.16
2022-08-29T01:14:18.208Z,100973.53
2022-08-29T01:16:48.137Z,100978.47
2022-08-29T01:19:47.606Z,100981.69
2022-08-29T01:22:42.921Z,100982.13
2022-08-29T01:25:22.697Z,100980.28
2022-08-29T01:28:03.321Z,100979.19
2022-08-29T01:30:31.392Z,100979.81
2022-08-29T01:33:00.914Z,100977.97
2022-08-29T01:35:29.681Z,100971.88
2022-08-29T01:37:57.615Z,100965.50
2022-08-29T01:40:29.301Z,100955.53
2022-08-29T01:42:57.656Z,100950.84
2022-08-29T01:45:25.312Z,100944.72
2022-08-29T01:47:52.873Z,100934.19
2022-08-29T01:50:20.552Z,100949.25
2022-08-29T01:52:48.114Z,100946.38
2022-08-29T01:55:15.886Z,100961.78
2022-08-29T01:57:43.897Z,100952.25
2022-08-29T02:00:12.867Z,100952.84
2022-08-29T02:02:43.389Z,100950.84
2022-08-29T02:05:11.001Z,100959.16
2022-08-29T02:07:39.071Z,100970.41
2022-08-29T02:10:08.152Z,100963.66
2022-08-29T02:12:36.568Z,100956.91
2022-08-29T02:15:06.159Z,100950.34
2022-08-29T02:17:33.698Z,100941.66
2022-08-29T02:20:03.051Z,100934.84
2022-08-29T02:22:31.248Z,100944.38
2022-08-29T02:25:01.505Z,100932.84
2022-08-29T02:27:31.741Z,100935.84
2022-08-29T02:29:59.665Z,100938.47
2022-08-29T02:32:27.171Z,100944.75
2022-08-29T02:34:54.785Z,100935.09
2022-08-29T02:37:22.298Z,100937.56
2022-08-29T02:39:50.255Z,100930.28
2022-08-29T02:42:17.842Z,100933.59
2022-08-29T02:44:45.359Z,100928.34
2022-08-29T02:47:14.345Z,100929.88
2022-08-29T02:49:42.479Z,100925.72
2022-08-29T02:52:10.672Z,100932.72
2022-08-29T02:54:38.741Z,100936.38
2022-08-29T02:57:06.796Z,100942.00
2022-08-29T02:59:34.684Z,100936.06
2022-08-29T03:02:02.708Z,100936.44
2022-08-29T03:04:31.055Z,100928.66
2022-08-29T03:06:59.569Z,100924.81
2022-08-29T03:09:27.077Z,100942.03
2022-08-29T03:11:56.525Z,100930.88
2022-08-29T03:14:25.476Z,100939.38
2022-08-29T03:16:53.568Z,100935.03
2022-08-29T03:19:21.150Z,100945.75
2022-08-29T03:21:49.129Z,100935.94
2022-08-29T03:24:16.724Z,100945.34
2022-08-29T03:26:56.339Z,100953.25
2022-08-29T03:29:25.660Z,100950.59
2022-08-29T03:31:58.648Z,100949.66
2022-08-29T03:34:28.432Z,100949.00
2022-08-29T03:36:56.056Z,100956.38
2022-08-29T03:39:24.277Z,100951.31
2022-08-29T03:41:52.645Z,100960.38
2022-08-29T03:44:20.215Z,100962.75
2022-08-29T03:46:47.859Z,100964.75
2022-08-29T03:49:16.221Z,100963.44
2022-08-29T03:51:44.131Z,100957.66
2022-08-29T03:54:12.071Z,100967.97
2022-08-29T03:56:39.917Z,100972.28
2022-08-29T03:59:08.948Z,100977.28
2022-08-29T04:01:36.608Z,100979.28
2022-08-29T04:04:05.307Z,100979.13
2022-08-29T04:06:36.591Z,100985.63
2022-08-29T04:09:04.235Z,100991.88
2022-08-29T04:11:32.179Z,101005.94
2022-08-29T04:14:00.330Z,101005.25
2022-08-29T04:16:30.748Z,101012.28
2022-08-29T04:18:59.963Z,101021.25
2022-08-29T04:21:28.361Z,101027.44
2022-08-29T04:23:56.562Z,101038.41
2022-08-29T04:26:41.003Z,101047.09
2022-08-29T04:29:12.009Z,101056.47
2022-08-29T04:31:41.800Z,101055.97
2022-08-29T04:34:13.395Z,101060.66
2022-08-29T04:36:45.373Z,101069.69
2022-08-29T04:39:14.338Z,101068.00
2022-08-29T04:41:43.418Z,101064.53
2022-08-29T04:44:13.219Z,101069.69
2022-08-29T04:46:41.433Z,101069.31
2022-08-29T04:49:09.874Z,101072.34
2022-08-29T04:51:38.006Z,101071.69
2022-08-29T04:54:06.904Z,101078.88
2022-08-29T04:56:37.567Z,101077.88
2022-08-29T04:59:05.943Z,101072.69
2022-08-29T05:01:34.943Z,101079.84
2022-08-29T05:04:02.885Z,101088.53
2022-08-29T05:06:30.468Z,101084.34
2022-08-29T05:08:59.885Z,101084.88
2022-08-29T05:11:30.362Z,101087.34
2022-08-29T05:13:59.749Z,101090.84
2022-08-29T05:16:27.878Z,101097.19
2022-08-29T05:18:56.628Z,101098.19
2022-08-29T05:21:35.047Z,101097.03
2022-08-29T05:24:07.170Z,101098.69
2022-08-29T05:26:39.199Z,101095.94
2022-08-29T05:29:08.982Z,101085.84
2022-08-29T05:31:38.665Z,101091.09
2022-08-29T05:34:14.036Z,101087.41
2022-08-29T05:36:54.736Z,101096.00
2022-08-29T05:39:22.283Z,101092.88
2022-08-29T05:41:50.288Z,101091.94
2022-08-29T05:44:17.809Z,101080.28
2022-08-29T05:46:45.927Z,101092.72
2022-08-29T05:49:13.527Z,101095.41
2022-08-29T05:51:42.466Z,101095.75
2022-08-29T05:54:10.542Z,101085.81
2022-08-29T05:56:38.469Z,101090.88
2022-08-29T05:59:06.034Z,101081.56
2022-08-29T06:01:34.617Z,101083.47
2022-08-29T06:04:02.783Z,101080.03
2022-08-29T06:06:30.571Z,101082.53
2022-08-29T06:08:59.465Z,101078.34
2022-08-29T06:11:31.753Z,101092.97
2022-08-29T06:14:00.568Z,101089.53
2022-08-29T06:16:29.845Z,101092.66
2022-08-29T06:18:57.876Z,101095.22
2022-08-29T06:21:25.486Z,101092.34
2022-08-29T06:23:53.440Z,101088.59
2022-08-29T06:26:21.813Z,101088.69
2022-08-29T06:28:49.745Z,101096.63
2022-08-29T06:31:24.934Z,101096.69
2022-08-29T06:33:55.311Z,101096.75
2022-08-29T06:36:25.598Z,101099.16
2022-08-29T06:38:56.472Z,101103.25
2022-08-29T06:41:25.155Z,101097.25
2022-08-29T06:43:55.275Z,101104.94
2022-08-29T06:46:26.175Z,101097.81
2022-08-29T06:48:55.337Z,101102.66
2022-08-29T06:51:24.350Z,101108.47
2022-08-29T06:53:52.132Z,101106.44
2022-08-29T06:56:20.480Z,101109.28
2022-08-29T06:58:48.073Z,101114.97
2022-08-29T07:01:18.554Z,101114.56
2022-08-29T07:03:47.167Z,101115.94
2022-08-29T07:06:17.813Z,101119.09
2022-08-29T07:08:54.952Z,101114.38
2022-08-29T07:11:24.936Z,101104.91
2022-08-29T07:13:53.052Z,101112.53
2022-08-29T07:16:20.854Z,101114.59
2022-08-29T07:18:51.334Z,101119.78
2022-08-29T07:21:21.981Z,101116.53
2022-08-29T07:23:51.093Z,101124.06
2022-08-29T07:26:23.315Z,101124.91
2022-08-29T07:28:53.834Z,101125.34
2022-08-29T07:31:21.470Z,101129.53
2022-08-29T07:34:01.767Z,101128.09
2022-08-29T07:36:34.364Z,101123.94
2022-08-29T07:39:05.576Z,101119.59
2022-08-29T07:41:33.374Z,101122.72
2022-08-29T07:44:00.956Z,101126.28
2022-08-29T07:46:29.199Z,101125.25
2022-08-29T07:48:58.894Z,101119.84
2022-08-29T07:51:27.796Z,101119.66
2022-08-29T07:53:56.436Z,101125.63
2022-08-29T07:56:33.442Z,101127.91
2022-08-29T07:59:05.510Z,101120.84
2022-08-29T08:01:35.838Z,101126.25
2022-08-29T08:04:04.723Z,101119.38
2022-08-29T08:06:34.566Z,101120.00
2022-08-29T08:09:06.037Z,101123.16
2022-08-29T08:11:33.697Z,101128.38
2022-08-29T08:14:02.370Z,101128.53
2022-08-29T08:16:31.699Z,101124.56
2022-08-29T08:18:59.416Z,101116.31
2022-08-29T08:21:27.504Z,101127.06
2022-08-29T08:23:55.053Z,101126.50
2022-08-29T08:26:23.008Z,101124.44
2022-08-29T08:28:50.766Z,101128.56
2022-08-29T08:31:19.984Z,101134.38
2022-08-29T08:33:47.772Z,101132.72
2022-08-29T08:36:30.035Z,101129.63
2022-08-29T08:39:00.253Z,101132.53
2022-08-29T08:41:52.422Z,101134.81
2022-08-29T08:44:24.879Z,101140.41
2022-08-29T08:46:59.571Z,101132.94
2022-08-29T08:49:43.317Z,101134.28
2022-08-29T08:52:32.950Z,101127.06
2022-08-29T08:55:15.154Z,101133.34
2022-08-29T08:57:51.368Z,101124.22
2022-08-29T09:00:19.740Z,101135.41
2022-08-29T09:03:09.240Z,101133.03
2022-08-29T09:06:19.093Z,101135.16
2022-08-29T09:08:56.613Z,101145.88
2022-08-29T09:11:24.087Z,101137.16
2022-08-29T09:13:52.073Z,101145.56
2022-08-29T09:16:29.323Z,101146.66
2022-08-29T09:19:01.337Z,101142.94
2022-08-29T09:21:44.913Z,101138.19
2022-08-29T09:24:39.339Z,101140.50
2022-08-29T09:27:09.090Z,101135.84
2022-08-29T09:29:37.352Z,101133.22
2022-08-29T09:32:16.575Z,101134.91
2022-08-29T09:35:08.062Z,101139.34
2022-08-29T09:37:36.355Z,101129.44
2022-08-29T09:40:17.664Z,101139.97
2022-08-29T09:42:59.917Z,101133.09
2022-08-29T09:45:28.549Z,101127.97
2022-08-29T09:48:22.648Z,101126.34
2022-08-29T09:50:50.624Z,101127.34
2022-08-29T09:53:24.686Z,101129.31
2022-08-29T09:55:53.237Z,101121.50
2022-08-29T09:58:21.109Z,101116.84
2022-08-29T10:01:19.411Z,101119.22
2022-08-29T10:04:00.180Z,101114.81
2022-08-29T10:06:34.520Z,101116.50
2022-08-29T10:09:26.556Z,101122.03
2022-08-29T10:12:08.740Z,101120.25
2022-08-29T10:14:41.180Z,101115.00
2022-08-29T10:17:46.276Z,101127.72
2022-08-29T10:20:15.168Z,101123.25
2022-08-29T10:23:00.970Z,101132.09
2022-08-29T10:25:37.766Z,101136.50
2022-08-29T10:28:29.711Z,101137.06
2022-08-29T10:31:20.931Z,101127.38
2022-08-29T10:34:03.656Z,101133.53
2022-08-29T10:36:39.126Z,101125.66
2022-08-29T10:39:38.380Z,101129.66
2022-08-29T10:42:11.519Z,101134.00
2022-08-29T10:45:03.949Z,101128.19
2022-08-29T10:47:52.145Z,101122.28
2022-08-29T10:50:46.571Z,101116.13
2022-08-29T10:53:20.468Z,101120.50
2022-08-29T10:56:05.909Z,101115.00
2022-08-29T10:58:54.848Z,101119.50
2022-08-29T11:01:37.490Z,101121.78
2022-08-29T11:04:17.211Z,101122.75
2022-08-29T11:07:02.104Z,101128.00
2022-08-29T11:09:40.387Z,101127.97
2022-08-29T11:12:17.241Z,101131.06
2022-08-29T11:15:00.923Z,101128.50
2022-08-29T11:17:37.248Z,101131.28
2022-08-29T11:20:11.707Z,101132.13
2022-08-29T11:22:47.491Z,101121.16
2022-08-29T11:25:18.569Z,101126.34
2022-08-29T11:28:07.216Z,101120.50
2022-08-29T11:30:59.236Z,101115.16
2022-08-29T11:33:41.415Z,101115.16
2022-08-29T11:36:12.242Z,101117.63
2022-08-29T11:39:00.797Z,101112.28
2022-08-29T11:41:51.630Z,101106.25
2022-08-29T11:44:41.049Z,101104.84
2022-08-29T11:47:30.770Z,101102.31
2022-08-29T11:50:17.848Z,101104.84
2022-08-29T11:53:09.373Z,101101.88
2022-08-29T11:55:43.046Z,101102.25
2022-08-29T11:58:16.353Z,101095.66
2022-08-29T12:00:52.722Z,101096.03
2022-08-29T12:03:37.186Z,101082.03
2022-08-29T12:06:29.996Z,101082.69
2022-08-29T12:09:13.817Z,101078.63
2022-08-29T12:12:21.808Z,101073.53
2022-08-29T12:14:53.154Z,101067.63
2022-08-29T12:17:40.053Z,101063.00
2022-08-29T12:20:32.084Z,101055.06
2022-08-29T12:23:18.122Z,101054.94
2022-08-29T12:29:02.098Z,101033.59
2022-08-29T12:32:18.241Z,101040.34
2022-08-29T12:34:52.546Z,101037.16
2022-08-29T12:37:54.144Z,101043.72
2022-08-29T12:40:38.629Z,101032.53
2022-08-29T12:43:30.574Z,101029.84
2022-08-29T12:45:58.740Z,101019.69
2022-08-29T12:48:33.462Z,101014.69
2022-08-29T12:51:02.391Z,101014.16
2022-08-29T12:53:36.881Z,101015.47
2022-08-29T12:56:17.166Z,101007.25
2022-08-29T12:58:54.354Z,101010.94
2022-08-29T13:01:25.068Z,101007.88
2022-08-29T13:03:59.582Z,101001.13
2022-08-29T13:06:28.620Z,100994.50
2022-08-29T13:08:57.748Z,100992.44
2022-08-29T13:11:30.427Z,100988.22
2022-08-29T13:14:07.971Z,100981.84
2022-08-29T13:16:36.009Z,100981.06
2022-08-29T13:19:12.007Z,100984.66
2022-08-29T13:21:40.547Z,100981.50
2022-08-29T13:24:17.999Z,100973.09
2022-08-29T13:27:04.522Z,100976.72
2022-08-29T13:29:39.913Z,100970.25
2022-08-29T13:32:14.506Z,100959.75
2022-08-29T13:35:16.864Z,100952.06
2022-08-29T13:37:46.936Z,100947.94
2022-08-29T13:40:33.611Z,100956.66
2022-08-29T13:43:01.600Z,100948.66
2022-08-29T13:45:29.269Z,100947.44
2022-08-29T13:48:02.614Z,100942.94
2022-08-29T13:50:32.031Z,100956.22
2022-08-29T13:52:59.821Z,100940.28
2022-08-29T13:55:29.292Z,100940.94
2022-08-29T13:57:57.424Z,100939.56
2022-08-29T14:00:32.179Z,100935.75
2022-08-29T14:03:06.501Z,100926.16
2022-08-29T14:05:35.649Z,100920.41
2022-08-29T14:08:04.478Z,100911.44
2022-08-29T14:10:33.234Z,100916.81
2022-08-29T14:13:01.031Z,100916.38
2022-08-29T14:15:28.597Z,100913.81
2022-08-29T14:17:56.643Z,100902.66
2022-08-29T14:20:24.793Z,100907.28
2022-08-29T14:22:52.541Z,100907.09
2022-08-29T14:25:20.375Z,100903.88
2022-08-29T14:27:49.210Z,100899.25
2022-08-29T14:30:20.161Z,100893.03
2022-08-29T14:32:47.940Z,100899.69
2022-08-29T14:35:26.072Z,100897.75
2022-08-29T14:37:57.007Z,100886.03
2022-08-29T14:40:25.631Z,100893.59
2022-08-29T14:42:53.852Z,100887.44
2022-08-29T14:45:21.771Z,100887.78
2022-08-29T14:47:49.750Z,100891.84
2022-08-29T14:50:17.447Z,100888.13
2022-08-29T14:52:45.756Z,100889.13
2022-08-29T14:55:15.373Z,100875.41
2022-08-29T14:57:43.653Z,100877.66
2022-08-29T15:00:15.516Z,100877.03
2022-08-29T15:02:43.919Z,100875.13
2022-08-29T15:05:12.531Z,100874.09
2022-08-29T15:07:41.370Z,100876.97
2022-08-29T15:10:10.785Z,100880.13
2022-08-29T15:12:38.862Z,100880.84
2022-08-29T15:15:07.687Z,100878.63
2022-08-29T15:17:35.556Z,100884.84
2022-08-29T15:22:54.789Z,100874.78
2022-08-29T15:25:24.090Z,100878.72
2022-08-29T15:27:51.659Z,100861.28
2022-08-29T15:30:23.850Z,100858.66
2022-08-29T15:32:52.545Z,100860.56
2022-08-29T15:35:20.757Z,100855.56
2022-08-29T15:37:49.284Z,100860.13
2022-08-29T15:40:17.405Z,100859.59
2022-08-29T15:42:45.321Z,100861.09
2022-08-29T15:45:13.521Z,100852.47
2022-08-29T15:47:46.044Z,100857.56
2022-08-29T15:50:15.379Z,100852.75
2022-08-29T15:52:43.598Z,100851.25
2022-08-29T15:55:12.794Z,100849.38
2022-08-29T15:57:51.943Z,100848.84
2022-08-29T16:00:29.695Z,100847.06
2022-08-29T16:03:01.841Z,100842.16
2022-08-29T16:05:30.124Z,100837.00
2022-08-29T16:07:58.342Z,100838.22
2022-08-29T16:10:26.395Z,100838.66
2022-08-29T16:12:54.269Z,100836.34
2022-08-29T16:15:22.252Z,100843.47
2022-08-29T16:17:50.306Z,100842.69
2022-08-29T16:20:18.843Z,100834.78
2022-08-29T16:22:46.768Z,100836.25
2022-08-29T16:25:15.056Z,100833.38
2022-08-29T16:27:43.129Z,100830.03
2022-08-29T16:30:11.608Z,100819.66
2022-08-29T16:32:39.570Z,100829.50
2022-08-29T16:35:09.184Z,100824.50
2022-08-29T16:37:37.672Z,100831.13
2022-08-29T16:40:07.949Z,100821.69
2022-08-29T16:42:38.526Z,100820.69
2022-08-29T16:45:10.490Z,100830.34
2022-08-29T16:47:38.699Z,100823.03
2022-08-29T16:50:07.381Z,100818.81
2022-08-29T16:52:35.392Z,100823.66
2022-08-29T16:55:04.743Z,100824.19
2022-08-29T16:57:32.612Z,100822.41
2022-08-29T17:00:00.763Z,100813.06
2022-08-29T17:02:29.109Z,100814.94
2022-08-29T17:04:57.445Z,100808.84
2022-08-29T17:07:34.544Z,100811.38
2022-08-29T17:10:04.074Z,100806.00
2022-08-29T17:12:32.003Z,100801.78
2022-08-29T17:14:59.454Z,100807.66
2022-08-29T17:17:27.046Z,100815.59
2022-08-29T17:19:55.411Z,100819.66
2022-08-29T17:22:23.406Z,100821.00
2022-08-29T17:24:50.924Z,100833.59
2022-08-29T17:27:21.682Z,100832.56
2022-08-29T17:29:50.975Z,100828.31
2022-08-29T17:32:18.563Z,100829.44
2022-08-29T17:34:48.034Z,100828.28
2022-08-29T17:37:15.687Z,100834.16
2022-08-29T17:39:43.235Z,100842.06
2022-08-29T17:42:11.825Z,100843.59
2022-08-29T17:44:42.344Z,100842.84
2022-08-29T17:47:09.906Z,100851.44
2022-08-29T17:49:37.458Z,100853.06
2022-08-29T17:52:05.219Z,100854.50
2022-08-29T17:54:32.756Z,100860.84
2022-08-29T17:57:01.703Z,100865.09
2022-08-29T17:59:33.996Z,100869.09
2022-08-29T18:02:02.614Z,100875.34
2022-08-29T18:04:30.188Z,100876.19
2022-08-29T18:06:58.694Z,100877.00
2022-08-29T18:09:27.886Z,100882.75
2022-08-29T18:11:58.334Z,100882.97
2022-08-29T18:14:26.795Z,100883.44
2022-08-29T18:16:55.526Z,100899.00
2022-08-29T18:19:23.841Z,100897.59
2022-08-29T18:21:53.086Z,100896.41
2022-08-29T18:24:21.179Z,100892.28
2022-08-29T18:26:49.378Z,100899.91
2022-08-29T18:29:17.673Z,100902.25
2022-08-29T18:31:45.864Z,100909.06
2022-08-29T18:34:15.227Z,100914.94
2022-08-29T18:36:44.859Z,100919.44
2022-08-29T18:39:14.301Z,100918.53
2022-08-29T18:41:42.358Z,100922.47
2022-08-29T18:44:10.263Z,100929.75
2022-08-29T18:46:41.619Z,100925.69
2022-08-29T18:49:16.606Z,100932.69
2022-08-29T18:51:44.212Z,100938.81
2022-08-29T18:54:15.150Z,100942.47
2022-08-29T18:56:44.917Z,100948.31
2022-08-29T18:59:12.720Z,100951.50
2022-08-29T19:01:42.737Z,100952.00
2022-08-29T19:04:11.401Z,100974.94
2022-08-29T19:06:39.429Z,100969.75
2022-08-29T19:09:07.029Z,100981.19
2022-08-29T19:11:36.025Z,100986.47
2022-08-29T19:14:04.355Z,100982.59
2022-08-29T19:16:33.661Z,100985.09
2022-08-29T19:19:01.789Z,100981.59
2022-08-29T19:21:29.363Z,100984.50
2022-08-29T19:23:56.932Z,100987.41
2022-08-29T19:26:34.556Z,100982.03
2022-08-29T19:29:09.383Z,100989.28
2022-08-29T19:31:37.405Z,100983.88
2022-08-29T19:34:05.078Z,100978.91
2022-08-29T19:36:33.615Z,100974.75
2022-08-29T19:39:01.727Z,100981.03
2022-08-29T19:41:29.404Z,100989.38
2022-08-29T19:44:00.758Z,100982.09
2022-08-29T19:46:28.961Z,100981.09
2022-08-29T19:48:56.811Z,100984.00
2022-08-29T19:51:25.610Z,100980.25
2022-08-29T19:53:59.160Z,100987.72
2022-08-29T19:56:29.186Z,100979.44
2022-08-29T19:58:57.956Z,100979.44
2022-08-29T20:01:26.736Z,100985.66
2022-08-29T20:03:54.539Z,100982.38
2022-08-29T20:06:23.313Z,100985.47
2022-08-29T20:08:51.140Z,100992.09
2022-08-29T20:11:24.053Z,100998.13
2022-08-29T20:13:53.913Z,100998.53
2022-08-29T20:16:27.391Z,100990.22
2022-08-29T20:18:54.975Z,101004.13
2022-08-29T20:21:23.755Z,101002.44
2022-08-29T20:23:57.278Z,101008.25
2022-08-29T20:26:30.277Z,101007.22
2022-08-29T20:29:00.286Z,101004.13
2022-08-29T20:31:29.004Z,101004.50
2022-08-29T20:33:56.602Z,100998.72
2022-08-29T20:36:44.004Z,101002.88
2022-08-29T20:39:14.702Z,101005.34
2022-08-29T20:41:48.277Z,101010.34
2022-08-29T20:44:18.429Z,101021.50
2022-08-29T20:46:47.254Z,101031.66
2022-08-29T20:49:18.246Z,101039.22
2022-08-29T20:51:46.882Z,101039.00
2022-08-29T20:54:17.450Z,101037.06
2022-08-29T20:56:45.718Z,101044.31
2022-08-29T20:59:13.270Z,101046.56
2022-08-29T21:01:41.729Z,101042.38
2022-08-29T21:04:29.972Z,101044.28
2022-08-29T21:07:03.994Z,101048.00
2022-08-29T21:09:32.529Z,101055.09
2022-08-29T21:12:00.660Z,101053.59
2022-08-29T21:14:29.055Z,101056.44
2022-08-29T21:16:58.030Z,101064.53
2022-08-29T21:19:29.939Z,101062.09
2022-08-29T21:21:59.720Z,101060.16
2022-08-29T21:24:29.526Z,101058.94
2022-08-29T21:26:58.753Z,101063.84
2022-08-29T21:29:27.271Z,101061.63
2022-08-29T21:31:54.844Z,101064.53
2022-08-29T21:34:23.787Z,101063.59
2022-08-29T21:36:51.709Z,101070.78
2022-08-29T21:39:28.390Z,101071.63
2022-08-29T21:41:59.910Z,101080.19
2022-08-29T21:44:31.593Z,101070.44
2022-08-29T21:46:59.750Z,101071.97
2022-08-29T21:49:27.860Z,101075.09
2022-08-29T21:51:56.860Z,101076.06
2022-08-29T21:54:24.711Z,101076.69
2022-08-29T21:56:53.355Z,101079.81
2022-08-29T21:59:21.926Z,101080.63
2022-08-29T22:01:54.595Z,101093.06
2022-08-29T22:04:28.193Z,101089.56
2022-08-29T22:06:59.743Z,101091.44
2022-08-29T22:09:28.368Z,101089.53
2022-08-29T22:11:56.345Z,101096.50
2022-08-29T22:14:44.120Z,101098.66
2022-08-29T22:17:12.527Z,101094.13
2022-08-29T22:19:40.743Z,101097.66
2022-08-29T22:22:10.499Z,101111.41
2022-08-29T22:24:38.443Z,101109.53
2022-08-29T22:27:06.601Z,101103.91
2022-08-29T22:29:34.636Z,101106.16
2022-08-29T22:32:02.384Z,101114.22
2022-08-29T22:34:30.598Z,101107.72
2022-08-29T22:36:58.557Z,101111.13
2022-08-29T22:39:26.099Z,101115.69
2022-08-29T22:41:54.988Z,101109.84
2022-08-29T22:45:02.102Z,101105.84
2022-08-29T22:47:10.501Z,101113.31
2022-08-29T22:49:38.965Z,101111.91
2022-08-29T22:52:06.730Z,101121.56
2022-08-29T22:54:40.186Z,101115.19
2022-08-29T22:57:11.981Z,101115.97
2022-08-29T22:59:41.632Z,101115.13
2022-08-29T23:02:10.400Z,101117.69
2022-08-29T23:04:39.024Z,101123.53
2022-08-29T23:07:07.690Z,101119.19
2022-08-29T23:09:36.097Z,101124.50
2022-08-29T23:12:06.527Z,101121.75
2022-08-29T23:14:37.353Z,101125.47
2022-08-29T23:17:06.592Z,101122.78
2022-08-29T23:19:35.763Z,101130.00
2022-08-29T23:22:03.882Z,101131.16
2022-08-29T23:24:32.862Z,101120.47
2022-08-29T23:27:00.557Z,101129.78
2022-08-29T23:29:31.020Z,101122.13
2022-08-29T23:31:59.040Z,101119.72
2022-08-29T23:34:27.695Z,101128.34
2022-08-29T23:36:55.795Z,101127.13
2022-08-29T23:39:23.828Z,101118.47
2022-08-29T23:41:51.864Z,101123.63
2022-08-29T23:44:19.887Z,101130.59
2022-08-29T23:46:48.007Z,101127.91
2022-08-29T23:49:15.904Z,101122.09
2022-08-29T23:51:43.577Z,101126.56
2022-08-29T23:54:11.134Z,101134.16
2022-08-29T23:56:38.705Z,101125.72
2022-08-29T23:59:06.257Z,101129.06
